sensor_id;sensor_type;location;lat;lon;timestamp;pressure;altitude;pressure_sealevel;temperature;humidity
967;BME280;56108;48.730;9.304;2023-03-25T00:02:04;96988.94;;;8.33;100.00
967;BME280;56108;48.730;9.304;2023-03-25T00:04:12;97002.84;;;8.24;100.00
967;BME280;56108;48.730;9.304;2023-03-25T00:06:22;97006.13;;;8.28;100.00
967;BME280;56108;48.730;9.304;2023-03-25T00:08:32;97011.75;;;8.23;100.00
967;BME280;56108;48.730;9.304;2023-03-25T00:10:40;97022.88;;;8.03;100.00
967;BME280;56108;48.730;9.304;2023-03-25T00:12:50;97003.06;;;7.96;100.00
967;BME280;56108;48.730;9.304;2023-03-25T00:14:58;96976.34;;;7.73;100.00
967;BME280;56108;48.730;9.304;2023-03-25T00:17:07;96962.66;;;7.67;100.00
967;BME280;56108;48.730;9.304;2023-03-25T00:19:18;96965.63;;;7.75;100.00
967;BME280;56108;48.730;9.304;2023-03-25T00:21:26;96964.75;;;7.62;100.00
967;BME280;56108;48.730;9.304;2023-03-25T00:23:40;96957.56;;;7.64;100.00
967;BME280;56108;48.730;9.304;2023-03-25T00:25:49;96965.53;;;7.64;100.00
967;BME280;56108;48.730;9.304;2023-03-25T00:27:57;96966.66;;;7.47;100.00
967;BME280;56108;48.730;9.304;2023-03-25T00:30:09;96963.47;;;7.42;100.00
967;BME280;56108;48.730;9.304;2023-03-25T00:32:17;96969.94;;;7.50;100.00
967;BME280;56108;48.730;9.304;2023-03-25T00:34:25;96984.44;;;7.45;100.00
967;BME280;56108;48.730;9.304;2023-03-25T00:36:34;96996.03;;;7.29;100.00
967;BME280;56108;48.730;9.304;2023-03-25T00:38:47;96979.84;;;7.21;100.00
967;BME280;56108;48.730;9.304;2023-03-25T00:40:55;96975.25;;;7.11;100.00
967;BME280;56108;48.730;9.304;2023-03-25T00:43:08;96975.09;;;7.26;100.00
967;BME280;56108;48.730;9.304;2023-03-25T00:45:16;96992.66;;;7.27;100.00
967;BME280;56108;48.730;9.304;2023-03-25T00:47:24;96992.09;;;7.22;100.00
967;BME280;56108;48.730;9.304;2023-03-25T00:49:32;96983.75;;;7.28;100.00
967;BME280;56108;48.730;9.304;2023-03-25T00:51:41;96981.16;;;7.14;100.00
967;BME280;56108;48.730;9.304;2023-03-25T00:54:00;96966.94;;;7.02;100.00
967;BME280;56108;48.730;9.304;2023-03-25T00:56:10;96969.88;;;6.98;100.00
967;BME280;56108;48.730;9.304;2023-03-25T00:58:18;96952.09;;;6.73;100.00
967;BME280;56108;48.730;9.304;2023-03-25T01:00:26;96955.84;;;6.83;100.00
967;BME280;56108;48.730;9.304;2023-03-25T01:02:35;96959.06;;;6.88;100.00
967;BME280;56108;48.730;9.304;2023-03-25T01:04:43;96954.28;;;6.80;100.00
967;BME280;56108;48.730;9.304;2023-03-25T01:06:55;96945.09;;;6.86;100.00
967;BME280;56108;48.730;9.304;2023-03-25T01:09:07;96941.72;;;6.84;100.00
967;BME280;56108;48.730;9.304;2023-03-25T01:11:19;96932.56;;;6.75;100.00
967;BME280;56108;48.730;9.304;2023-03-25T01:13:29;96938.81;;;6.74;100.00
967;BME280;56108;48.730;9.304;2023-03-25T01:15:38;96936.63;;;6.67;100.00
967;BME280;56108;48.730;9.304;2023-03-25T01:17:47;96931.56;;;6.64;100.00
967;BME280;56108;48.730;9.304;2023-03-25T01:19:56;96941.09;;;6.66;100.00
967;BME280;56108;48.730;9.304;2023-03-25T01:22:04;96938.00;;;6.60;100.00
967;BME280;56108;48.730;9.304;2023-03-25T01:24:15;96946.22;;;6.55;100.00
967;BME280;56108;48.730;9.304;2023-03-25T01:26:23;96937.59;;;6.66;100.00
967;BME280;56108;48.730;9.304;2023-03-25T01:28:31;96935.34;;;6.60;100.00
967;BME280;56108;48.730;9.304;2023-03-25T01:30:41;96928.78;;;6.52;100.00
967;BME280;56108;48.730;9.304;2023-03-25T01:32:49;96928.00;;;6.50;100.00
967;BME280;56108;48.730;9.304;2023-03-25T01:34:57;96930.47;;;6.53;100.00
967;BME280;56108;48.730;9.304;2023-03-25T01:37:04;96939.22;;;6.68;100.00
967;BME280;56108;48.730;9.304;2023-03-25T01:39:17;96931.56;;;6.64;100.00
967;BME280;56108;48.730;9.304;2023-03-25T01:41:27;96922.38;;;6.69;100.00
967;BME280;56108;48.730;9.304;2023-03-25T01:44:03;96947.31;;;6.65;100.00
967;BME280;56108;48.730;9.304;2023-03-25T01:46:12;96949.53;;;6.59;100.00
967;BME280;56108;48.730;9.304;2023-03-25T01:48:23;96941.97;;;6.52;100.00
967;BME280;56108;48.730;9.304;2023-03-25T01:50:33;96925.16;;;6.53;100.00
967;BME280;56108;48.730;9.304;2023-03-25T01:52:48;96910.75;;;6.72;100.00
967;BME280;56108;48.730;9.304;2023-03-25T01:55:00;96929.66;;;6.66;100.00
967;BME280;56108;48.730;9.304;2023-03-25T01:57:11;96939.28;;;6.67;100.00
967;BME280;56108;48.730;9.304;2023-03-25T01:59:24;96945.19;;;6.85;100.00
967;BME280;56108;48.730;9.304;2023-03-25T02:01:33;96934.25;;;6.76;100.00
967;BME280;56108;48.730;9.304;2023-03-25T02:03:41;96939.66;;;6.75;100.00
967;BME280;56108;48.730;9.304;2023-03-25T02:05:58;96926.00;;;6.68;100.00
967;BME280;56108;48.730;9.304;2023-03-25T02:08:08;96927.31;;;6.61;100.00
967;BME280;56108;48.730;9.304;2023-03-25T02:10:19;96920.22;;;6.62;100.00
967;BME280;56108;48.730;9.304;2023-03-25T02:12:27;96915.31;;;6.70;100.00
967;BME280;56108;48.730;9.304;2023-03-25T02:14:36;96912.94;;;6.65;100.00
967;BME280;56108;48.730;9.304;2023-03-25T02:16:50;96895.47;;;6.63;100.00
967;BME280;56108;48.730;9.304;2023-03-25T02:19:28;96906.41;;;6.71;100.00
967;BME280;56108;48.730;9.304;2023-03-25T02:22:11;96906.13;;;6.75;100.00
967;BME280;56108;48.730;9.304;2023-03-25T02:25:00;96914.19;;;6.87;100.00
967;BME280;56108;48.730;9.304;2023-03-25T02:29:51;96925.22;;;6.93;100.00
967;BME280;56108;48.730;9.304;2023-03-25T02:32:15;96918.63;;;6.86;100.00
967;BME280;56108;48.730;9.304;2023-03-25T02:34:47;96925.22;;;6.93;100.00
967;BME280;56108;48.730;9.304;2023-03-25T02:39:50;96920.78;;;6.94;100.00
967;BME280;56108;48.730;9.304;2023-03-25T02:42:10;96921.28;;;6.86;100.00
967;BME280;56108;48.730;9.304;2023-03-25T02:44:35;96926.53;;;7.00;100.00
967;BME280;56108;48.730;9.304;2023-03-25T02:46:48;96937.00;;;7.02;100.00
967;BME280;56108;48.730;9.304;2023-03-25T02:49:01;96936.69;;;7.06;100.00
967;BME280;56108;48.730;9.304;2023-03-25T02:51:17;96944.66;;;7.19;100.00
967;BME280;56108;48.730;9.304;2023-03-25T02:53:29;96954.63;;;7.16;100.00
967;BME280;56108;48.730;9.304;2023-03-25T02:55:42;96946.56;;;7.17;100.00
967;BME280;56108;48.730;9.304;2023-03-25T02:57:54;96961.31;;;7.21;100.00
967;BME280;56108;48.730;9.304;2023-03-25T03:00:05;96962.94;;;7.10;100.00
967;BME280;56108;48.730;9.304;2023-03-25T03:02:20;96963.41;;;7.16;100.00
967;BME280;56108;48.730;9.304;2023-03-25T03:04:29;96951.63;;;7.07;100.00
967;BME280;56108;48.730;9.304;2023-03-25T03:06:41;96936.81;;;7.05;100.00
967;BME280;56108;48.730;9.304;2023-03-25T03:09:01;96937.09;;;7.00;100.00
967;BME280;56108;48.730;9.304;2023-03-25T03:11:16;96958.72;;;7.07;100.00
967;BME280;56108;48.730;9.304;2023-03-25T03:13:34;96950.97;;;7.04;100.00
967;BME280;56108;48.730;9.304;2023-03-25T03:15:53;96956.22;;;6.91;100.00
967;BME280;56108;48.730;9.304;2023-03-25T03:18:10;96963.50;;;6.88;100.00
967;BME280;56108;48.730;9.304;2023-03-25T03:20:29;96970.25;;;6.79;100.00
967;BME280;56108;48.730;9.304;2023-03-25T03:22:55;96965.50;;;6.84;100.00
967;BME280;56108;48.730;9.304;2023-03-25T03:25:12;96970.03;;;6.82;100.00
967;BME280;56108;48.730;9.304;2023-03-25T03:27:28;96968.75;;;6.75;100.00
967;BME280;56108;48.730;9.304;2023-03-25T03:29:41;96978.22;;;6.65;100.00
967;BME280;56108;48.730;9.304;2023-03-25T03:31:54;96987.66;;;6.54;100.00
967;BME280;56108;48.730;9.304;2023-03-25T03:34:14;96983.63;;;6.49;100.00
967;BME280;56108;48.730;9.304;2023-03-25T03:36:27;96999.00;;;6.42;100.00
967;BME280;56108;48.730;9.304;2023-03-25T03:38:38;96995.59;;;6.26;100.00
967;BME280;56108;48.730;9.304;2023-03-25T03:40:50;96989.56;;;6.24;100.00
967;BME280;56108;48.730;9.304;2023-03-25T03:43:06;96984.28;;;6.10;100.00
967;BME280;56108;48.730;9.304;2023-03-25T03:45:18;96974.50;;;6.12;100.00
967;BME280;56108;48.730;9.304;2023-03-25T03:47:30;96982.03;;;6.04;100.00
967;BME280;56108;48.730;9.304;2023-03-25T03:49:44;96979.66;;;5.99;100.00
967;BME280;56108;48.730;9.304;2023-03-25T03:51:58;96987.31;;;6.04;100.00
967;BME280;56108;48.730;9.304;2023-03-25T03:54:16;96995.22;;;6.04;100.00
967;BME280;56108;48.730;9.304;2023-03-25T03:56:29;96998.88;;;5.87;100.00
967;BME280;56108;48.730;9.304;2023-03-25T03:58:44;96991.31;;;5.81;100.00
967;BME280;56108;48.730;9.304;2023-03-25T04:00:58;96995.75;;;5.80;100.00
967;BME280;56108;48.730;9.304;2023-03-25T04:03:12;97001.75;;;5.68;100.00
967;BME280;56108;48.730;9.304;2023-03-25T04:05:22;97001.75;;;5.68;100.00
967;BME280;56108;48.730;9.304;2023-03-25T04:07:38;97002.03;;;5.78;100.00
967;BME280;56108;48.730;9.304;2023-03-25T04:09:52;97004.47;;;5.66;100.00
967;BME280;56108;48.730;9.304;2023-03-25T04:12:07;96993.56;;;5.72;100.00
967;BME280;56108;48.730;9.304;2023-03-25T04:14:20;96998.72;;;5.60;100.00
967;BME280;56108;48.730;9.304;2023-03-25T04:16:29;96997.47;;;5.51;100.00
967;BME280;56108;48.730;9.304;2023-03-25T04:18:39;96989.06;;;5.44;100.00
967;BME280;56108;48.730;9.304;2023-03-25T04:20:51;96985.59;;;5.44;100.00
967;BME280;56108;48.730;9.304;2023-03-25T04:22:59;96984.91;;;5.40;100.00
967;BME280;56108;48.730;9.304;2023-03-25T04:25:08;96983.78;;;5.44;100.00
967;BME280;56108;48.730;9.304;2023-03-25T04:27:18;96983.25;;;5.54;100.00
967;BME280;56108;48.730;9.304;2023-03-25T04:29:29;96985.78;;;5.55;100.00
967;BME280;56108;48.730;9.304;2023-03-25T04:31:38;96979.63;;;5.40;100.00
967;BME280;56108;48.730;9.304;2023-03-25T04:33:50;96973.28;;;5.29;100.00
967;BME280;56108;48.730;9.304;2023-03-25T04:35:58;96972.59;;;5.25;100.00
967;BME280;56108;48.730;9.304;2023-03-25T04:38:07;96972.25;;;5.31;100.00
967;BME280;56108;48.730;9.304;2023-03-25T04:40:15;96982.53;;;5.36;100.00
967;BME280;56108;48.730;9.304;2023-03-25T04:42:24;96977.94;;;5.39;100.00
967;BME280;56108;48.730;9.304;2023-03-25T04:44:39;96977.88;;;5.25;100.00
967;BME280;56108;48.730;9.304;2023-03-25T04:46:49;96977.56;;;5.15;100.00
967;BME280;56108;48.730;9.304;2023-03-25T04:48:57;96959.88;;;5.17;100.00
967;BME280;56108;48.730;9.304;2023-03-25T04:51:07;96962.25;;;5.22;100.00
967;BME280;56108;48.730;9.304;2023-03-25T04:53:16;96972.69;;;5.23;100.00
967;BME280;56108;48.730;9.304;2023-03-25T04:55:24;96972.91;;;5.35;100.00
967;BME280;56108;48.730;9.304;2023-03-25T04:57:34;96978.91;;;5.22;100.00
967;BME280;56108;48.730;9.304;2023-03-25T04:59:44;96970.84;;;5.10;100.00
967;BME280;56108;48.730;9.304;2023-03-25T05:01:52;96970.50;;;5.16;100.00
967;BME280;56108;48.730;9.304;2023-03-25T05:04:03;96970.59;;;5.14;100.00
967;BME280;56108;48.730;9.304;2023-03-25T05:06:11;96984.53;;;5.16;100.00
967;BME280;56108;48.730;9.304;2023-03-25T05:08:19;96977.41;;;5.18;100.00
967;BME280;56108;48.730;9.304;2023-03-25T05:10:28;96987.41;;;5.28;100.00
967;BME280;56108;48.730;9.304;2023-03-25T05:12:36;96983.84;;;5.29;100.00
967;BME280;56108;48.730;9.304;2023-03-25T05:14:47;96984.13;;;5.08;100.00
967;BME280;56108;48.730;9.304;2023-03-25T05:16:55;96982.50;;;5.06;100.00
967;BME280;56108;48.730;9.304;2023-03-25T05:19:04;96991.63;;;5.00;100.00
967;BME280;56108;48.730;9.304;2023-03-25T05:21:13;96986.53;;;4.97;100.00
967;BME280;56108;48.730;9.304;2023-03-25T05:23:21;96985.31;;;5.18;100.00
967;BME280;56108;48.730;9.304;2023-03-25T05:25:29;96991.66;;;5.30;100.00
967;BME280;56108;48.730;9.304;2023-03-25T05:27:41;96990.66;;;5.33;100.00
967;BME280;56108;48.730;9.304;2023-03-25T05:29:53;96995.19;;;5.45;100.00
967;BME280;56108;48.730;9.304;2023-03-25T05:32:02;97003.84;;;5.47;100.00
967;BME280;56108;48.730;9.304;2023-03-25T05:34:10;97007.84;;;5.54;100.00
967;BME280;56108;48.730;9.304;2023-03-25T05:36:21;97023.13;;;5.63;100.00
967;BME280;56108;48.730;9.304;2023-03-25T05:38:30;97017.00;;;5.63;100.00
967;BME280;56108;48.730;9.304;2023-03-25T05:40:38;97022.16;;;5.80;100.00
967;BME280;56108;48.730;9.304;2023-03-25T05:42:47;97025.91;;;5.76;100.00
967;BME280;56108;48.730;9.304;2023-03-25T05:45:01;97027.06;;;5.86;100.00
967;BME280;56108;48.730;9.304;2023-03-25T05:47:09;97026.25;;;6.00;100.00
967;BME280;56108;48.730;9.304;2023-03-25T05:49:17;97025.50;;;5.98;100.00
967;BME280;56108;48.730;9.304;2023-03-25T05:51:26;97021.63;;;6.04;100.00
967;BME280;56108;48.730;9.304;2023-03-25T05:53:37;97026.25;;;6.00;100.00
967;BME280;56108;48.730;9.304;2023-03-25T05:55:47;97022.41;;;6.06;100.00
967;BME280;56108;48.730;9.304;2023-03-25T05:57:56;97037.81;;;6.27;100.00
967;BME280;56108;48.730;9.304;2023-03-25T06:00:10;97037.69;;;6.29;100.00
967;BME280;56108;48.730;9.304;2023-03-25T06:02:19;97041.94;;;6.32;100.00
967;BME280;56108;48.730;9.304;2023-03-25T06:04:27;97045.72;;;6.27;100.00
967;BME280;56108;48.730;9.304;2023-03-25T06:06:38;97058.38;;;6.51;100.00
967;BME280;56108;48.730;9.304;2023-03-25T06:08:48;97059.72;;;6.58;100.00
967;BME280;56108;48.730;9.304;2023-03-25T06:10:56;97070.06;;;6.75;100.00
967;BME280;56108;48.730;9.304;2023-03-25T06:13:05;97063.38;;;6.84;100.00
967;BME280;56108;48.730;9.304;2023-03-25T06:15:16;97062.84;;;7.06;100.00
967;BME280;56108;48.730;9.304;2023-03-25T06:17:33;97078.75;;;6.92;100.00
967;BME280;56108;48.730;9.304;2023-03-25T06:19:43;97068.91;;;6.94;100.00
967;BME280;56108;48.730;9.304;2023-03-25T06:21:51;97076.66;;;6.97;100.00
967;BME280;56108;48.730;9.304;2023-03-25T06:24:00;97079.97;;;7.00;100.00
967;BME280;56108;48.730;9.304;2023-03-25T06:26:08;97087.97;;;6.99;100.00
967;BME280;56108;48.730;9.304;2023-03-25T06:28:17;97085.03;;;7.18;100.00
967;BME280;56108;48.730;9.304;2023-03-25T06:30:28;97076.09;;;7.33;100.00
967;BME280;56108;48.730;9.304;2023-03-25T06:32:36;97080.13;;;7.39;100.00
967;BME280;56108;48.730;9.304;2023-03-25T06:34:45;97073.13;;;7.52;100.00
967;BME280;56108;48.730;9.304;2023-03-25T06:36:54;97077.13;;;7.97;100.00
967;BME280;56108;48.730;9.304;2023-03-25T06:39:02;97088.97;;;8.31;100.00
967;BME280;56108;48.730;9.304;2023-03-25T06:41:13;97081.09;;;8.30;100.00
967;BME280;56108;48.730;9.304;2023-03-25T06:43:21;97074.84;;;8.31;100.00
967;BME280;56108;48.730;9.304;2023-03-25T06:45:49;97088.84;;;8.20;100.00
967;BME280;56108;48.730;9.304;2023-03-25T06:48:05;97081.88;;;8.57;98.20
967;BME280;56108;48.730;9.304;2023-03-25T06:50:13;97086.34;;;8.82;97.45
967;BME280;56108;48.730;9.304;2023-03-25T06:52:20;97086.88;;;9.24;95.00
967;BME280;56108;48.730;9.304;2023-03-25T06:54:28;97087.66;;;10.78;83.39
967;BME280;56108;48.730;9.304;2023-03-25T06:56:37;97095.03;;;11.31;78.59
967;BME280;56108;48.730;9.304;2023-03-25T06:58:45;97096.69;;;11.54;74.84
967;BME280;56108;48.730;9.304;2023-03-25T07:00:56;97095.28;;;11.39;74.43
967;BME280;56108;48.730;9.304;2023-03-25T07:03:08;97099.28;;;11.11;75.97
967;BME280;56108;48.730;9.304;2023-03-25T07:05:16;97095.41;;;10.70;80.20
967;BME280;56108;48.730;9.304;2023-03-25T07:07:25;97097.88;;;10.27;81.23
967;BME280;56108;48.730;9.304;2023-03-25T07:09:33;97090.44;;;10.19;82.62
967;BME280;56108;48.730;9.304;2023-03-25T07:11:41;97084.94;;;9.98;84.60
967;BME280;56108;48.730;9.304;2023-03-25T07:13:50;97088.53;;;9.62;86.23
967;BME280;56108;48.730;9.304;2023-03-25T07:16:01;97097.50;;;9.11;88.80
967;BME280;56108;48.730;9.304;2023-03-25T07:18:10;97097.31;;;9.14;91.90
967;BME280;56108;48.730;9.304;2023-03-25T07:20:18;97092.25;;;8.99;92.46
967;BME280;56108;48.730;9.304;2023-03-25T07:22:26;97094.69;;;8.89;93.34
967;BME280;56108;48.730;9.304;2023-03-25T07:24:34;97089.09;;;8.55;94.71
967;BME280;56108;48.730;9.304;2023-03-25T07:26:42;97085.16;;;8.35;97.95
967;BME280;56108;48.730;9.304;2023-03-25T07:28:52;97090.03;;;8.54;96.51
967;BME280;56108;48.730;9.304;2023-03-25T07:31:04;97090.66;;;8.32;98.48
967;BME280;56108;48.730;9.304;2023-03-25T07:33:13;97084.22;;;8.36;99.42
967;BME280;56108;48.730;9.304;2023-03-25T07:35:21;97099.28;;;8.61;98.37
967;BME280;56108;48.730;9.304;2023-03-25T07:37:29;97083.75;;;8.81;96.74
967;BME280;56108;48.730;9.304;2023-03-25T07:39:37;97086.66;;;8.78;95.90
967;BME280;56108;48.730;9.304;2023-03-25T07:41:45;97088.75;;;8.98;95.26
967;BME280;56108;48.730;9.304;2023-03-25T07:44:07;97085.34;;;9.81;91.05
967;BME280;56108;48.730;9.304;2023-03-25T07:46:18;97093.41;;;10.38;86.59
967;BME280;56108;48.730;9.304;2023-03-25T07:48:26;97089.72;;;10.63;84.64
967;BME280;56108;48.730;9.304;2023-03-25T07:50:34;97084.66;;;10.60;81.90
967;BME280;56108;48.730;9.304;2023-03-25T07:52:45;97092.75;;;10.70;81.25
967;BME280;56108;48.730;9.304;2023-03-25T07:54:53;97086.31;;;10.50;80.83
967;BME280;56108;48.730;9.304;2023-03-25T07:57:01;97086.81;;;10.55;82.13
967;BME280;56108;48.730;9.304;2023-03-25T07:59:09;97083.88;;;10.47;81.16
967;BME280;56108;48.730;9.304;2023-03-25T08:01:20;97081.94;;;10.49;80.64
967;BME280;56108;48.730;9.304;2023-03-25T08:03:28;97090.19;;;10.68;81.89
967;BME280;56108;48.730;9.304;2023-03-25T08:05:36;97079.53;;;10.46;81.68
967;BME280;56108;48.730;9.304;2023-03-25T08:07:44;97088.88;;;10.74;81.30
967;BME280;56108;48.730;9.304;2023-03-25T08:09:52;97082.69;;;10.62;79.59
967;BME280;56108;48.730;9.304;2023-03-25T08:12:00;97079.19;;;10.62;82.02
967;BME280;56108;48.730;9.304;2023-03-25T08:14:08;97084.78;;;10.92;80.09
967;BME280;56108;48.730;9.304;2023-03-25T08:16:16;97082.72;;;10.74;80.20
967;BME280;56108;48.730;9.304;2023-03-25T08:18:30;97085.97;;;10.88;79.75
967;BME280;56108;48.730;9.304;2023-03-25T08:20:38;97087.41;;;11.26;78.77
967;BME280;56108;48.730;9.304;2023-03-25T08:22:47;97084.63;;;11.16;78.85
967;BME280;56108;48.730;9.304;2023-03-25T08:24:55;97079.56;;;11.13;78.54
967;BME280;56108;48.730;9.304;2023-03-25T08:27:03;97096.63;;;11.11;78.16
967;BME280;56108;48.730;9.304;2023-03-25T08:29:20;97087.31;;;10.83;80.12
967;BME280;56108;48.730;9.304;2023-03-25T08:31:30;97092.16;;;10.78;78.84
967;BME280;56108;48.730;9.304;2023-03-25T08:33:45;97084.63;;;11.05;78.25
967;BME280;56108;48.730;9.304;2023-03-25T08:35:56;97084.66;;;10.83;79.44
967;BME280;56108;48.730;9.304;2023-03-25T08:38:04;97086.31;;;10.39;80.90
967;BME280;56108;48.730;9.304;2023-03-25T08:40:13;97081.06;;;10.26;84.10
967;BME280;56108;48.730;9.304;2023-03-25T08:42:22;97080.78;;;10.18;86.83
967;BME280;56108;48.730;9.304;2023-03-25T08:44:30;97074.44;;;9.73;90.66
967;BME280;56108;48.730;9.304;2023-03-25T08:46:39;97083.34;;;9.24;94.42
967;BME280;56108;48.730;9.304;2023-03-25T08:48:49;97087.25;;;8.81;98.99
967;BME280;56108;48.730;9.304;2023-03-25T08:50:59;97094.41;;;8.68;100.00
967;BME280;56108;48.730;9.304;2023-03-25T08:53:07;97088.84;;;8.33;100.00
967;BME280;56108;48.730;9.304;2023-03-25T08:55:15;97094.88;;;8.22;100.00
967;BME280;56108;48.730;9.304;2023-03-25T08:57:23;97085.53;;;8.04;100.00
967;BME280;56108;48.730;9.304;2023-03-25T08:59:32;97089.94;;;8.43;100.00
967;BME280;56108;48.730;9.304;2023-03-25T09:01:41;97080.09;;;9.20;100.00
967;BME280;56108;48.730;9.304;2023-03-25T09:03:54;97085.59;;;9.54;100.00
967;BME280;56108;48.730;9.304;2023-03-25T09:06:03;97079.88;;;9.71;100.00
967;BME280;56108;48.730;9.304;2023-03-25T09:08:15;97080.81;;;9.70;100.00
967;BME280;56108;48.730;9.304;2023-03-25T09:10:24;97078.78;;;9.26;100.00
967;BME280;56108;48.730;9.304;2023-03-25T09:12:33;97076.31;;;8.86;100.00
967;BME280;56108;48.730;9.304;2023-03-25T09:14:42;97076.88;;;8.78;100.00
967;BME280;56108;48.730;9.304;2023-03-25T09:16:51;97074.00;;;8.30;100.00
967;BME280;56108;48.730;9.304;2023-03-25T09:19:01;97075.28;;;8.50;100.00
967;BME280;56108;48.730;9.304;2023-03-25T09:21:09;97073.09;;;8.57;100.00
967;BME280;56108;48.730;9.304;2023-03-25T09:23:17;97077.53;;;8.56;100.00
967;BME280;56108;48.730;9.304;2023-03-25T09:25:27;97072.56;;;8.52;100.00
967;BME280;56108;48.730;9.304;2023-03-25T09:27:36;97066.38;;;8.64;100.00
967;BME280;56108;48.730;9.304;2023-03-25T09:29:44;97057.88;;;8.84;100.00
967;BME280;56108;48.730;9.304;2023-03-25T09:31:54;97055.28;;;8.96;100.00
967;BME280;56108;48.730;9.304;2023-03-25T09:34:08;97052.84;;;9.53;100.00
967;BME280;56108;48.730;9.304;2023-03-25T09:36:24;97047.88;;;9.73;100.00
967;BME280;56108;48.730;9.304;2023-03-25T09:38:32;97065.59;;;9.96;100.00
967;BME280;56108;48.730;9.304;2023-03-25T09:40:41;97050.06;;;10.14;100.00
967;BME280;56108;48.730;9.304;2023-03-25T09:42:59;97048.63;;;10.21;100.00
967;BME280;56108;48.730;9.304;2023-03-25T09:45:24;97060.66;;;10.49;100.00
967;BME280;56108;48.730;9.304;2023-03-25T09:47:36;97060.78;;;10.59;100.00
967;BME280;56108;48.730;9.304;2023-03-25T09:49:50;97062.38;;;11.06;100.00
967;BME280;56108;48.730;9.304;2023-03-25T09:52:05;97063.34;;;11.28;100.00
967;BME280;56108;48.730;9.304;2023-03-25T09:54:19;97055.13;;;11.52;99.23
967;BME280;56108;48.730;9.304;2023-03-25T09:56:33;97059.88;;;11.48;95.23
967;BME280;56108;48.730;9.304;2023-03-25T09:58:47;97065.75;;;11.63;98.26
967;BME280;56108;48.730;9.304;2023-03-25T10:01:00;97058.81;;;11.83;92.02
967;BME280;56108;48.730;9.304;2023-03-25T10:03:16;97045.00;;;11.77;94.19
967;BME280;56108;48.730;9.304;2023-03-25T10:05:42;97050.09;;;12.13;94.21
967;BME280;56108;48.730;9.304;2023-03-25T10:08:04;97050.25;;;11.68;91.95
967;BME280;56108;48.730;9.304;2023-03-25T10:10:24;97048.97;;;11.51;92.01
967;BME280;56108;48.730;9.304;2023-03-25T10:12:39;97056.13;;;12.87;87.01
967;BME280;56108;48.730;9.304;2023-03-25T10:15:00;97074.94;;;14.44;69.70
967;BME280;56108;48.730;9.304;2023-03-25T10:17:16;97079.06;;;15.59;66.06
967;BME280;56108;48.730;9.304;2023-03-25T10:19:39;97085.13;;;15.34;64.83
967;BME280;56108;48.730;9.304;2023-03-25T10:21:57;97071.44;;;14.63;69.59
967;BME280;56108;48.730;9.304;2023-03-25T10:24:16;97057.66;;;13.70;74.85
967;BME280;56108;48.730;9.304;2023-03-25T10:28:38;97052.22;;;13.22;79.54
967;BME280;56108;48.730;9.304;2023-03-25T10:30:51;97049.66;;;14.85;69.44
967;BME280;56108;48.730;9.304;2023-03-25T10:33:02;97068.34;;;16.49;63.30
967;BME280;56108;48.730;9.304;2023-03-25T10:35:14;97090.50;;;16.68;58.95
967;BME280;56108;48.730;9.304;2023-03-25T10:37:30;97082.41;;;17.12;57.76
967;BME280;56108;48.730;9.304;2023-03-25T10:39:41;97095.78;;;17.30;53.08
967;BME280;56108;48.730;9.304;2023-03-25T10:41:55;97106.63;;;17.12;52.88
967;BME280;56108;48.730;9.304;2023-03-25T10:44:07;97098.50;;;17.04;51.79
967;BME280;56108;48.730;9.304;2023-03-25T10:46:21;97097.69;;;17.12;53.52
967;BME280;56108;48.730;9.304;2023-03-25T10:48:32;97093.16;;;16.42;53.60
967;BME280;56108;48.730;9.304;2023-03-25T10:50:41;97081.34;;;16.35;55.19
967;BME280;56108;48.730;9.304;2023-03-25T10:52:52;97082.50;;;15.97;56.01
967;BME280;56108;48.730;9.304;2023-03-25T10:55:02;97090.38;;;15.53;54.83
967;BME280;56108;48.730;9.304;2023-03-25T10:57:14;97065.81;;;14.36;58.96
967;BME280;56108;48.730;9.304;2023-03-25T10:59:29;97067.63;;;13.78;60.15
967;BME280;56108;48.730;9.304;2023-03-25T11:01:40;97051.22;;;13.23;61.30
967;BME280;56108;48.730;9.304;2023-03-25T11:03:50;97055.03;;;12.99;63.51
967;BME280;56108;48.730;9.304;2023-03-25T11:05:59;97043.53;;;13.09;65.15
967;BME280;56108;48.730;9.304;2023-03-25T11:08:11;97042.56;;;12.69;66.98
967;BME280;56108;48.730;9.304;2023-03-25T11:10:30;97045.28;;;12.89;65.95
967;BME280;56108;48.730;9.304;2023-03-25T11:12:39;97039.28;;;12.35;67.16
967;BME280;56108;48.730;9.304;2023-03-25T11:14:55;97033.03;;;12.04;68.37
967;BME280;56108;48.730;9.304;2023-03-25T11:17:07;97031.72;;;11.98;71.06
967;BME280;56108;48.730;9.304;2023-03-25T11:19:23;97034.72;;;12.26;72.33
967;BME280;56108;48.730;9.304;2023-03-25T11:21:34;97031.00;;;12.59;71.73
967;BME280;56108;48.730;9.304;2023-03-25T11:23:46;97032.34;;;12.84;71.75
967;BME280;56108;48.730;9.304;2023-03-25T11:26:01;97034.34;;;13.22;70.64
967;BME280;56108;48.730;9.304;2023-03-25T11:28:12;97037.47;;;13.37;66.79
967;BME280;56108;48.730;9.304;2023-03-25T11:30:23;97032.00;;;13.39;67.55
967;BME280;56108;48.730;9.304;2023-03-25T11:32:35;97038.34;;;13.67;65.38
967;BME280;56108;48.730;9.304;2023-03-25T11:34:46;97028.84;;;13.24;62.24
967;BME280;56108;48.730;9.304;2023-03-25T11:36:59;97035.75;;;12.86;60.93
967;BME280;56108;48.730;9.304;2023-03-25T11:39:16;97033.66;;;12.99;61.00
967;BME280;56108;48.730;9.304;2023-03-25T11:41:29;97021.00;;;13.32;60.36
967;BME280;56108;48.730;9.304;2023-03-25T11:43:38;97013.50;;;13.16;61.07
967;BME280;56108;48.730;9.304;2023-03-25T11:45:47;97022.69;;;13.33;60.70
967;BME280;56108;48.730;9.304;2023-03-25T11:47:58;97032.56;;;13.52;57.98
967;BME280;56108;48.730;9.304;2023-03-25T11:50:18;97031.91;;;13.89;59.69
967;BME280;56108;48.730;9.304;2023-03-25T11:52:34;97030.06;;;13.70;59.06
967;BME280;56108;48.730;9.304;2023-03-25T11:54:49;97030.16;;;13.39;61.89
967;BME280;56108;48.730;9.304;2023-03-25T11:57:02;97031.56;;;13.34;63.21
967;BME280;56108;48.730;9.304;2023-03-25T11:59:19;97030.13;;;13.29;61.47
967;BME280;56108;48.730;9.304;2023-03-25T12:01:46;97024.72;;;13.20;62.40
967;BME280;56108;48.730;9.304;2023-03-25T12:04:11;97030.22;;;13.18;65.89
967;BME280;56108;48.730;9.304;2023-03-25T12:06:21;97042.59;;;13.19;65.58